Time;durP1;ratioP1;P1;durP2;ratioP2;P2;SDS_P1;SDS_P2;PMS_P1;PMS_P2;Temp;Humidity;BMP_temperature;BMP_pressure;BME280_temperature;BME280_humidity;BME280_pressure;Samples;Min_cycle;Max_cycle;Signal;HPM_P1;HPM_P2
2022/06/15 00:02:08;;;;;;;7.82;3.80;;;13.20;99.90;;;;;;4997949;28;20042;-77
2022/06/15 00:04:34;;;;;;;8.30;3.53;;;13.20;99.90;;;;;;4994553;28;20603;-76
2022/06/15 00:07:00;;;;;;;6.13;3.33;;;13.20;99.90;;;;;;4996507;28;20754;-76
2022/06/15 00:09:26;;;;;;;8.13;3.28;;;13.10;99.90;;;;;;4998163;28;20056;-76
2022/06/15 00:11:52;;;;;;;7.38;2.75;;;13.20;99.90;;;;;;4998073;28;20081;-77
2022/06/15 00:14:23;;;;;;;7.70;3.30;;;13.00;99.90;;;;;;4999250;28;20152;-77
2022/06/15 00:16:50;;;;;;;5.70;3.13;;;13.20;99.90;;;;;;4978636;28;20050;-76
2022/06/15 00:19:17;;;;;;;11.85;4.60;;;13.00;99.90;;;;;;4964085;28;20161;-76
2022/06/15 00:21:43;;;;;;;6.32;2.92;;;12.90;99.90;;;;;;4997311;28;20042;-76
2022/06/15 00:24:08;;;;;;;8.82;3.72;;;12.90;99.90;;;;;;4998320;28;20498;-76
2022/06/15 00:26:34;;;;;;;7.80;3.42;;;12.90;99.90;;;;;;4998018;28;20041;-77
2022/06/15 00:29:00;;;;;;;6.88;3.33;;;12.80;99.90;;;;;;4998925;28;20113;-76
2022/06/15 00:31:26;;;;;;;9.02;3.22;;;12.80;99.90;;;;;;4996891;28;20050;-76
2022/06/15 00:33:51;;;;;;;7.88;3.60;;;12.90;99.90;;;;;;4980681;28;20108;-76
2022/06/15 00:36:20;;;;;;;6.60;3.30;;;12.80;99.90;;;;;;4990678;28;20042;-76
2022/06/15 00:38:48;;;;;;;6.57;3.38;;;12.70;99.90;;;;;;4995405;28;20548;-77
2022/06/15 00:41:23;;;;;;;8.10;3.55;;;12.70;99.90;;;;;;4997363;28;20048;-77
2022/06/15 00:43:56;;;;;;;7.65;3.50;;;12.70;99.90;;;;;;4999892;28;20096;-77
2022/06/15 00:46:37;;;;;;;9.02;3.78;;;12.70;99.90;;;;;;5000588;28;20824;-76
2022/06/15 00:49:21;;;;;;;8.40;4.38;;;12.60;99.90;;;;;;4983742;28;20049;-76
2022/06/15 00:51:51;;;;;;;8.73;4.47;;;12.60;99.90;;;;;;4980189;28;20054;-77
2022/06/15 00:54:18;;;;;;;9.30;3.65;;;13.00;99.90;;;;;;4995283;28;20053;-77
2022/06/15 00:56:44;;;;;;;8.27;3.53;;;12.50;99.90;;;;;;4976561;28;20065;-77
2022/06/15 00:59:22;;;;;;;6.30;3.40;;;12.50;99.90;;;;;;4983867;28;20096;-76
2022/06/15 01:01:48;;;;;;;8.57;3.67;;;12.50;99.90;;;;;;4971992;28;20057;-77
2022/06/15 01:04:14;;;;;;;8.77;4.57;;;12.50;99.90;;;;;;4984338;28;20068;-76
2022/06/15 01:06:52;;;;;;;6.78;3.80;;;12.50;99.90;;;;;;4992352;28;20050;-77
2022/06/15 01:09:26;;;;;;;6.85;4.40;;;12.40;99.90;;;;;;4995196;28;20042;-76
2022/06/15 01:12:15;;;;;;;8.48;3.60;;;12.40;99.90;;;;;;5001406;28;20058;-77
2022/06/15 01:14:56;;;;;;;8.85;4.10;;;12.40;99.90;;;;;;5001185;28;20046;-77
2022/06/15 01:17:40;;;;;;;8.68;3.78;;;12.30;99.90;;;;;;5000821;28;20053;-76
2022/06/15 01:20:24;;;;;;;11.13;4.63;;;12.30;99.90;;;;;;4995715;28;20108;-76
2022/06/15 01:23:26;;;;;;;8.32;4.20;;;12.30;99.90;;;;;;4981066;28;20046;-76
2022/06/15 01:26:17;;;;;;;10.20;4.47;;;12.30;99.90;;;;;;4982957;28;20053;-77
2022/06/15 01:29:03;;;;;;;8.75;3.72;;;12.30;99.90;;;;;;4982130;28;20053;-76
2022/06/15 01:31:54;;;;;;;9.68;3.80;;;12.30;99.90;;;;;;4999528;28;20671;-76
2022/06/15 01:34:35;;;;;;;6.22;3.13;;;12.20;99.90;;;;;;4975618;28;20139;-76
2022/06/15 01:37:27;;;;;;;8.02;4.35;;;12.20;99.90;;;;;;4981842;28;20058;-76
2022/06/15 01:40:06;;;;;;;7.82;4.05;;;12.20;99.90;;;;;;5000508;28;20154;-76
2022/06/15 01:42:56;;;;;;;7.68;4.20;;;12.20;99.90;;;;;;4998461;28;20480;-77
2022/06/15 01:45:27;;;;;;;8.73;4.20;;;12.10;99.90;;;;;;4982273;28;20085;-76
2022/06/15 01:47:56;;;;;;;10.55;4.32;;;12.10;99.90;;;;;;4973362;28;20057;-77
2022/06/15 01:50:30;;;;;;;12.55;5.45;;;12.20;99.90;;;;;;4994361;28;20691;-76
2022/06/15 01:53:20;;;;;;;8.50;4.68;;;12.10;99.90;;;;;;4980144;28;20156;-77
2022/06/15 01:55:50;;;;;;;9.10;4.68;;;12.10;99.90;;;;;;4971075;28;20604;-77
2022/06/15 01:58:22;;;;;;;6.93;3.85;;;12.10;99.90;;;;;;4981167;28;20046;-76
2022/06/15 02:00:59;;;;;;;7.57;3.50;;;12.10;99.90;;;;;;4981707;28;20049;-77
2022/06/15 02:03:38;;;;;;;8.82;4.40;;;12.10;99.90;;;;;;4981881;28;20054;-77
2022/06/15 02:06:15;;;;;;;8.10;4.18;;;12.00;99.90;;;;;;4982461;28;20048;-76
2022/06/15 02:08:53;;;;;;;9.60;4.30;;;12.00;99.90;;;;;;4996581;28;20523;-76
2022/06/15 02:11:29;;;;;;;10.52;4.07;;;12.10;99.90;;;;;;4999505;28;20771;-76
2022/06/15 02:14:04;;;;;;;8.40;4.20;;;12.00;99.90;;;;;;4974991;28;20100;-77
2022/06/15 02:16:40;;;;;;;10.38;4.13;;;11.90;99.90;;;;;;4999460;28;20060;-77
2022/06/15 02:19:10;;;;;;;9.07;4.65;;;11.90;99.90;;;;;;4982060;28;20049;-76
2022/06/15 02:21:38;;;;;;;11.85;4.80;;;11.90;99.90;;;;;;4994668;28;20676;-77
2022/06/15 02:24:05;;;;;;;7.90;3.95;;;11.90;99.90;;;;;;4995784;28;20058;-76
2022/06/15 02:26:33;;;;;;;8.57;4.20;;;11.80;99.90;;;;;;4975580;28;20058;-77
2022/06/15 02:29:06;;;;;;;9.45;4.60;;;11.80;99.90;;;;;;5000140;28;20038;-76
2022/06/15 02:31:36;;;;;;;8.82;4.47;;;11.80;99.90;;;;;;5000499;28;20053;-77
2022/06/15 02:34:04;;;;;;;9.15;4.07;;;11.80;99.90;;;;;;4981556;28;20586;-77
2022/06/15 02:36:33;;;;;;;8.68;4.38;;;11.70;99.90;;;;;;4998384;28;20125;-77
2022/06/15 02:39:01;;;;;;;9.35;3.85;;;11.70;99.90;;;;;;4980225;28;20056;-76
2022/06/15 02:41:27;;;;;;;10.25;4.90;;;11.70;99.90;;;;;;5000265;28;20534;-77
2022/06/15 02:43:57;;;;;;;8.85;5.07;;;11.60;99.90;;;;;;4998808;28;20042;-76
2022/06/15 02:46:25;;;;;;;6.78;4.05;;;11.60;99.90;;;;;;4998468;28;20062;-76
2022/06/15 02:48:51;;;;;;;12.82;5.80;;;11.60;99.90;;;;;;4998354;28;20052;-76
2022/06/15 02:51:27;;;;;;;9.82;4.93;;;11.50;99.90;;;;;;4996820;28;20073;-77
2022/06/15 02:53:56;;;;;;;10.65;5.00;;;11.30;99.90;;;;;;4997832;28;20049;-77
2022/06/15 02:56:24;;;;;;;10.43;5.50;;;11.50;99.90;;;;;;4998048;28;20050;-76
2022/06/15 02:58:52;;;;;;;8.30;4.90;;;11.50;99.90;;;;;;4998661;28;20085;-77
2022/06/15 03:01:18;;;;;;;9.15;4.53;;;11.50;99.90;;;;;;5000426;28;20587;-77
2022/06/15 03:03:44;;;;;;;9.25;5.28;;;11.50;99.90;;;;;;4999126;28;20048;-76
2022/06/15 03:06:13;;;;;;;11.70;5.20;;;11.40;99.90;;;;;;4996734;28;20042;-76
2022/06/15 03:08:39;;;;;;;9.98;4.60;;;11.40;99.90;;;;;;4997282;28;20112;-77
2022/06/15 03:11:05;;;;;;;10.75;4.90;;;11.40;99.90;;;;;;4998366;28;20116;-77
2022/06/15 03:13:30;;;;;;;7.82;5.25;;;11.40;99.90;;;;;;4978968;28;20543;-77
2022/06/15 03:16:00;;;;;;;9.73;5.20;;;11.30;99.90;;;;;;4997509;28;20078;-77
2022/06/15 03:18:27;;;;;;;11.05;5.05;;;11.30;99.90;;;;;;4982070;28;20049;-76
2022/06/15 03:20:57;;;;;;;9.13;5.00;;;11.30;99.90;;;;;;4997680;28;20088;-77
2022/06/15 03:23:23;;;;;;;10.40;4.78;;;11.40;99.90;;;;;;5005809;28;20049;-77
2022/06/15 03:25:53;;;;;;;9.85;5.20;;;11.30;99.90;;;;;;4996800;28;20050;-77
2022/06/15 03:28:19;;;;;;;14.18;4.55;;;11.30;99.90;;;;;;4980565;28;20547;-77
2022/06/15 03:30:44;;;;;;;9.65;4.63;;;11.30;99.90;;;;;;4998360;28;20083;-76
2022/06/15 03:33:10;;;;;;;9.82;4.60;;;11.30;99.90;;;;;;4998462;28;20050;-77
2022/06/15 03:35:36;;;;;;;8.82;4.53;;;11.30;99.90;;;;;;4996260;28;20128;-77
2022/06/15 03:38:03;;;;;;;11.23;4.45;;;11.30;99.90;;;;;;4997146;28;20053;-76
2022/06/15 03:40:29;;;;;;;9.98;4.40;;;11.30;99.90;;;;;;4996066;28;20041;-76
2022/06/15 03:42:55;;;;;;;5.70;3.50;;;11.30;99.90;;;;;;4979657;28;20618;-77
2022/06/15 03:45:21;;;;;;;6.57;4.00;;;11.30;99.90;;;;;;4999665;28;20039;-77
2022/06/15 03:48:01;;;;;;;7.43;4.70;;;11.30;99.90;;;;;;5076128;27;21378;-76
2022/06/15 03:50:29;;;;;;;8.10;4.60;;;11.30;99.90;;;;;;5054441;28;20502;-76
2022/06/15 03:52:54;;;;;;;9.77;4.57;;;11.20;99.90;;;;;;5058676;28;20070;-76
2022/06/15 03:55:21;;;;;;;10.05;4.68;;;11.30;99.90;;;;;;5059332;28;21431;-76
2022/06/15 03:57:47;;;;;;;11.15;5.15;;;11.30;99.90;;;;;;5070938;28;20048;-76
2022/06/15 04:00:20;;;;;;;9.25;5.13;;;11.30;99.90;;;;;;5063867;28;20705;-76
2022/06/15 04:02:46;;;;;;;9.95;5.00;;;11.40;99.90;;;;;;5044305;28;20457;-76
2022/06/15 04:05:21;;;;;;;8.23;4.28;;;11.40;99.90;;;;;;5056653;28;20105;-76
2022/06/15 04:10:35;;;;;;;8.63;5.05;;;11.50;99.90;;;;;;5036812;28;20053;-76
2022/06/15 04:13:01;;;;;;;7.88;4.72;;;11.60;99.90;;;;;;5057102;28;20045;-77
2022/06/15 04:15:27;;;;;;;11.52;5.38;;;11.70;99.90;;;;;;5055871;28;20040;-76
2022/06/15 04:17:53;;;;;;;10.63;4.90;;;11.70;99.90;;;;;;5047524;28;20041;-76
2022/06/15 04:20:36;;;;;;;9.27;5.38;;;11.80;99.90;;;;;;5058558;28;20106;-76
2022/06/15 04:23:08;;;;;;;9.43;4.88;;;11.90;99.90;;;;;;5050970;28;20094;-77
2022/06/15 04:25:40;;;;;;;10.35;5.10;;;12.00;99.90;;;;;;5068885;28;20040;-76
2022/06/15 04:28:08;;;;;;;13.18;5.70;;;12.10;99.90;;;;;;5071337;28;20056;-76
2022/06/15 04:30:33;;;;;;;9.95;5.25;;;12.20;99.90;;;;;;5070104;28;20083;-76
2022/06/15 04:32:59;;;;;;;10.32;5.32;;;12.40;99.90;;;;;;5064798;28;20771;-77
2022/06/15 04:35:25;;;;;;;12.15;5.50;;;12.30;99.90;;;;;;5065083;28;20047;-77
2022/06/15 04:37:51;;;;;;;10.45;5.90;;;12.40;99.90;;;;;;5054539;28;20055;-76
2022/06/15 04:40:17;;;;;;;11.05;5.55;;;12.50;99.90;;;;;;5072609;28;20048;-76
2022/06/15 04:42:43;;;;;;;10.20;5.82;;;12.50;99.90;;;;;;5065402;28;20128;-76
2022/06/15 04:45:10;;;;;;;8.75;4.80;;;12.60;99.90;;;;;;5068451;28;20078;-76
2022/06/15 04:47:36;;;;;;;7.65;4.65;;;12.70;99.90;;;;;;5068714;28;20522;-76
2022/06/15 04:50:03;;;;;;;10.70;5.18;;;12.80;99.90;;;;;;5066462;28;20693;-77
2022/06/15 04:52:29;;;;;;;7.82;4.78;;;12.80;99.90;;;;;;5052973;28;20044;-76
2022/06/15 04:54:55;;;;;;;10.00;5.53;;;12.90;99.90;;;;;;5066871;28;20072;-76
2022/06/15 04:57:20;;;;;;;13.98;5.53;;;13.10;99.90;;;;;;5059815;28;20156;-77
2022/06/15 04:59:46;;;;;;;11.80;4.72;;;13.10;99.90;;;;;;5060930;28;20049;-77
2022/06/15 05:02:11;;;;;;;12.85;5.60;;;13.10;99.90;;;;;;5050907;28;20080;-76
2022/06/15 05:04:38;;;;;;;14.27;5.90;;;13.20;99.90;;;;;;5047997;28;20044;-76
2022/06/15 05:07:04;;;;;;;9.75;4.72;;;13.30;99.90;;;;;;5040874;28;20041;-76
2022/06/15 05:09:29;;;;;;;12.65;5.13;;;13.30;99.90;;;;;;5057279;28;20092;-76
2022/06/15 05:11:55;;;;;;;8.48;4.88;;;13.40;99.90;;;;;;5050490;28;20044;-76
2022/06/15 05:14:24;;;;;;;8.05;4.47;;;13.40;99.90;;;;;;5056372;28;20083;-77
2022/06/15 05:16:49;;;;;;;10.82;5.22;;;13.50;99.90;;;;;;5058034;28;20788;-77
2022/06/15 05:19:15;;;;;;;9.05;4.60;;;13.60;99.90;;;;;;5049067;28;20047;-76
2022/06/15 05:21:43;;;;;;;11.05;5.13;;;13.70;99.90;;;;;;5041952;28;20510;-76
2022/06/15 05:24:09;;;;;;;11.30;4.65;;;13.70;99.90;;;;;;5048542;28;20208;-77
2022/06/15 05:26:35;;;;;;;9.60;4.43;;;13.80;99.90;;;;;;5052326;28;20161;-77
2022/06/15 05:29:01;;;;;;;11.93;4.65;;;13.80;99.90;;;;;;5022343;28;20404;-77
2022/06/15 05:31:27;;;;;;;9.07;3.97;;;13.90;99.90;;;;;;5022922;28;20823;-77
2022/06/15 05:33:54;;;;;;;9.70;5.22;;;14.00;99.90;;;;;;5038908;28;20056;-77
2022/06/15 05:36:27;;;;;;;10.55;4.38;;;14.10;99.90;;;;;;5041722;28;20610;-77
2022/06/15 05:38:52;;;;;;;8.15;4.88;;;14.10;99.90;;;;;;5030418;28;20108;-77
2022/06/15 05:41:18;;;;;;;7.25;4.07;;;14.20;99.90;;;;;;5026893;28;20735;-77
2022/06/15 05:43:53;;;;;;;9.63;3.97;;;14.20;99.90;;;;;;5051406;28;20059;-78
2022/06/15 05:46:31;;;;;;;13.25;4.68;;;14.30;99.90;;;;;;5032392;28;20049;-78
2022/06/15 05:48:59;;;;;;;10.15;4.45;;;14.30;99.90;;;;;;5037321;28;20049;-77
2022/06/15 05:51:25;;;;;;;9.65;4.75;;;14.40;99.90;;;;;;5044914;28;20041;-77
2022/06/15 05:53:51;;;;;;;9.75;4.38;;;14.40;99.90;;;;;;5052009;28;20056;-75
2022/06/15 05:56:17;;;;;;;11.15;4.20;;;14.60;99.90;;;;;;5031143;28;20698;-80
2022/06/15 05:58:44;;;;;;;8.50;4.00;;;14.60;99.90;;;;;;5026076;28;20487;-81
2022/06/15 06:01:24;;;;;;;9.88;4.75;;;14.70;99.90;;;;;;5038297;28;20523;-82
2022/06/15 06:03:50;;;;;;;12.05;4.45;;;14.80;99.90;;;;;;5033591;28;20052;-83
2022/06/15 06:06:16;;;;;;;10.60;4.20;;;14.90;99.90;;;;;;5055194;28;20118;-82
2022/06/15 06:08:42;;;;;;;13.45;4.43;;;15.00;99.90;;;;;;5043906;28;20865;-85
2022/06/15 06:11:07;;;;;;;10.25;4.40;;;15.00;99.90;;;;;;5045816;28;20045;-84
2022/06/15 06:13:33;;;;;;;12.43;4.53;;;15.20;99.90;;;;;;5045830;28;20135;-82
2022/06/15 06:15:58;;;;;;;9.00;4.70;;;15.40;99.90;;;;;;5057362;28;20052;-83
2022/06/15 06:18:24;;;;;;;14.38;5.38;;;15.30;99.90;;;;;;5028632;28;20046;-82
2022/06/15 06:20:50;;;;;;;9.82;4.47;;;15.30;99.90;;;;;;5020395;28;20084;-82
2022/06/15 06:23:16;;;;;;;9.18;4.57;;;15.30;99.90;;;;;;5018729;28;20045;-82
2022/06/15 06:25:43;;;;;;;10.15;4.25;;;15.30;99.90;;;;;;5035473;28;20075;-82
2022/06/15 06:28:31;;;;;;;8.95;4.65;;;15.40;99.90;;;;;;5019925;28;20076;-82
2022/06/15 06:30:58;;;;;;;10.73;3.67;;;15.30;99.90;;;;;;5019580;28;20041;-82
2022/06/15 06:33:32;;;;;;;8.43;3.63;;;15.30;99.90;;;;;;5018748;28;20076;-82
2022/06/15 06:36:01;;;;;;;11.82;4.22;;;15.40;99.90;;;;;;5021293;28;20073;-82
2022/06/15 06:38:27;;;;;;;10.10;3.80;;;15.50;99.90;;;;;;5047620;28;20048;-81
2022/06/15 06:40:55;;;;;;;5.90;2.97;;;15.50;99.90;;;;;;5036600;28;20804;-82
2022/06/15 06:43:21;;;;;;;11.10;3.83;;;15.80;99.90;;;;;;5039197;28;20063;-82
2022/06/15 06:45:48;;;;;;;6.50;3.45;;;15.70;99.90;;;;;;5023685;28;20037;-81
2022/06/15 06:48:14;;;;;;;12.80;3.60;;;15.80;99.90;;;;;;5040014;28;20498;-82
2022/06/15 06:50:40;;;;;;;8.55;3.38;;;15.80;99.90;;;;;;5038981;28;20728;-82
2022/06/15 06:53:07;;;;;;;5.80;3.17;;;15.90;99.90;;;;;;5022536;28;20406;-82
2022/06/15 06:55:33;;;;;;;11.80;3.85;;;15.90;99.90;;;;;;5039028;28;20138;-81
2022/06/15 06:58:00;;;;;;;8.45;4.18;;;16.00;99.90;;;;;;5038830;28;20563;-82
2022/06/15 07:00:26;;;;;;;7.63;3.15;;;16.10;99.90;;;;;;5039496;28;20717;-81
2022/06/15 07:02:52;;;;;;;9.77;3.63;;;16.10;99.90;;;;;;5020132;28;20427;-82
2022/06/15 07:05:18;;;;;;;12.30;4.07;;;16.10;99.90;;;;;;5017180;28;20045;-82
2022/06/15 07:07:44;;;;;;;9.25;3.72;;;16.20;99.90;;;;;;5019633;28;20057;-81
2022/06/15 07:10:11;;;;;;;10.35;3.55;;;16.40;99.90;;;;;;5038750;28;20053;-82
2022/06/15 07:12:38;;;;;;;8.02;3.40;;;16.60;99.90;;;;;;5038709;28;20670;-82
2022/06/15 07:15:05;;;;;;;6.85;2.70;;;16.90;99.90;;;;;;5038274;28;20060;-82
2022/06/15 07:17:30;;;;;;;8.07;2.97;;;17.20;99.90;;;;;;5025530;28;20075;-82
2022/06/15 07:19:56;;;;;;;10.38;2.97;;;17.60;99.90;;;;;;5038471;28;20044;-83
2022/06/15 07:22:22;;;;;;;8.75;2.50;;;17.90;99.90;;;;;;5050144;28;20044;-81
2022/06/15 07:24:48;;;;;;;9.88;3.03;;;18.10;99.90;;;;;;5057903;28;20160;-81
2022/06/15 07:27:15;;;;;;;9.30;2.60;;;18.40;99.90;;;;;;5054469;28;20075;-80
2022/06/15 07:29:42;;;;;;;7.35;2.45;;;18.60;99.90;;;;;;5042856;28;20688;-82
2022/06/15 07:32:08;;;;;;;5.70;2.20;;;18.80;99.90;;;;;;5037515;28;20072;-81
2022/06/15 07:34:34;;;;;;;6.13;1.70;;;19.00;99.90;;;;;;5036813;28;20708;-81
2022/06/15 07:37:00;;;;;;;6.43;2.67;;;19.20;99.90;;;;;;5027336;28;20059;-81
2022/06/15 07:39:30;;;;;;;8.30;2.45;;;19.40;99.90;;;;;;5048163;28;20037;-81
2022/06/15 07:41:57;;;;;;;10.15;2.60;;;19.50;99.90;;;;;;5034048;28;20641;-81
2022/06/15 07:44:27;;;;;;;7.28;2.50;;;19.70;99.90;;;;;;5045148;28;20097;-82
2022/06/15 07:49:54;;;;;;;7.18;2.20;;;19.70;99.90;;;;;;5035474;28;20571;-81
2022/06/15 07:49:54;;;;;;;12.32;2.70;;;19.80;99.90;;;;;;5018622;28;20054;-82
2022/06/15 07:52:26;;;;;;;6.38;1.92;;;19.90;99.90;;;;;;5034589;28;20137;-81
2022/06/15 07:54:52;;;;;;;8.52;2.00;;;20.00;99.90;;;;;;5052618;28;20040;-81
2022/06/15 07:57:18;;;;;;;8.73;2.08;;;20.10;99.90;;;;;;5039043;28;20103;-80
2022/06/15 07:59:44;;;;;;;6.20;2.38;;;20.10;99.90;;;;;;5035245;28;20047;-81
2022/06/15 08:02:10;;;;;;;8.13;2.42;;;20.20;99.90;;;;;;5031530;28;20059;-81
2022/06/15 08:04:36;;;;;;;6.82;2.53;;;20.20;99.90;;;;;;5032453;28;20048;-81
2022/06/15 08:07:02;;;;;;;9.15;2.38;;;20.20;99.90;;;;;;5036180;28;20076;-81
2022/06/15 08:09:27;;;;;;;5.50;2.22;;;20.20;99.90;;;;;;5038561;28;20041;-81
2022/06/15 08:12:11;;;;;;;8.23;2.50;;;20.20;99.90;;;;;;5040644;28;20049;-81
2022/06/15 08:14:56;;;;;;;5.32;2.28;;;20.20;99.90;;;;;;5054906;28;20558;-81
2022/06/15 08:17:27;;;;;;;5.60;1.83;;;20.20;99.90;;;;;;5050374;28;20040;-81
2022/06/15 08:20:00;;;;;;;6.05;1.45;;;20.20;99.90;;;;;;5039144;28;20538;-81
2022/06/15 08:22:26;;;;;;;5.57;1.38;;;20.20;99.90;;;;;;5033750;28;20061;-81
2022/06/15 08:24:53;;;;;;;8.40;1.60;;;20.10;99.90;;;;;;5057845;28;20084;-81
2022/06/15 08:27:21;;;;;;;7.78;1.75;;;20.10;99.90;;;;;;5053842;28;20040;-81
2022/06/15 08:29:48;;;;;;;7.85;2.05;;;20.00;99.90;;;;;;5055313;28;20714;-81
2022/06/15 08:32:15;;;;;;;7.57;1.67;;;19.90;99.90;;;;;;5034069;28;20094;-81
2022/06/15 08:34:41;;;;;;;3.20;1.20;;;19.90;99.90;;;;;;5063079;28;20520;-81
2022/06/15 08:37:09;;;;;;;4.72;1.45;;;19.90;99.90;;;;;;5054651;28;20045;-80
2022/06/15 08:39:36;;;;;;;6.00;1.65;;;20.10;99.90;;;;;;5049664;28;20060;-81
2022/06/15 08:42:26;;;;;;;8.20;1.50;;;20.10;99.90;;;;;;5038558;28;20072;-80
2022/06/15 08:45:21;;;;;;;4.57;1.35;;;20.20;99.90;;;;;;5061570;28;20503;-80
2022/06/15 08:48:18;;;;;;;9.00;1.58;;;20.30;98.70;;;;;;5037814;28;20583;-81
2022/06/15 08:50:58;;;;;;;7.47;1.50;;;20.50;99.50;;;;;;5053887;28;20063;-81
2022/06/15 08:53:37;;;;;;;7.30;1.70;;;20.50;96.10;;;;;;5039145;28;20079;-81
2022/06/15 08:56:11;;;;;;;4.38;1.45;;;20.70;98.60;;;;;;5048604;28;20767;-81
2022/06/15 08:59:10;;;;;;;5.72;1.45;;;21.00;99.00;;;;;;5056417;28;20036;-81
2022/06/15 09:01:46;;;;;;;5.20;1.45;;;21.10;95.70;;;;;;5053494;28;20056;-81
2022/06/15 09:04:21;;;;;;;4.85;1.48;;;21.40;95.30;;;;;;5038806;28;20439;-81
2022/06/15 09:07:00;;;;;;;4.35;1.50;;;21.60;96.60;;;;;;5038829;28;20100;-81
2022/06/15 09:09:57;;;;;;;4.88;1.33;;;21.80;96.20;;;;;;5036260;28;20049;-81
2022/06/15 09:12:53;;;;;;;7.35;2.05;;;22.10;94.50;;;;;;5031102;28;20127;-81
2022/06/15 09:15:43;;;;;;;5.07;1.77;;;22.30;95.20;;;;;;5045396;28;20131;-81
2022/06/15 09:18:22;;;;;;;4.32;1.77;;;22.40;96.30;;;;;;5041001;28;20770;-81
2022/06/15 09:21:12;;;;;;;6.07;1.55;;;22.50;95.90;;;;;;5021533;28;20095;-81
2022/06/15 09:23:55;;;;;;;5.82;1.63;;;22.60;96.60;;;;;;5042664;28;20772;-81
2022/06/15 09:26:33;;;;;;;9.60;1.70;;;22.60;95.40;;;;;;5036676;28;20960;-82
2022/06/15 09:29:24;;;;;;;4.15;1.40;;;22.40;95.60;;;;;;5024169;28;20057;-82
2022/06/15 09:32:12;;;;;;;4.82;1.33;;;22.50;95.90;;;;;;5051354;28;20048;-81
2022/06/15 09:34:42;;;;;;;3.60;1.38;;;22.50;94.50;;;;;;5037348;28;20059;-81
2022/06/15 09:37:15;;;;;;;5.28;1.73;;;22.40;95.00;;;;;;5020889;28;20052;-80
2022/06/15 09:39:41;;;;;;;5.80;1.50;;;22.50;95.30;;;;;;5040722;28;20037;-81
2022/06/15 09:42:16;;;;;;;6.15;1.67;;;22.60;96.00;;;;;;5034773;28;20049;-81
2022/06/15 09:45:06;;;;;;;4.35;1.52;;;22.60;95.40;;;;;;5036834;28;20133;-81
2022/06/15 09:47:38;;;;;;;6.63;1.45;;;22.50;94.80;;;;;;5029193;28;20140;-81
2022/06/15 09:50:24;;;;;;;7.63;1.35;;;22.50;95.50;;;;;;5042320;28;20126;-77
2022/06/15 09:53:05;;;;;;;5.95;1.65;;;22.70;95.20;;;;;;5043493;28;20215;-79
2022/06/15 09:55:48;;;;;;;4.22;1.63;;;22.80;93.40;;;;;;5030150;28;20036;-77
2022/06/15 09:58:18;;;;;;;6.72;2.00;;;22.90;93.30;;;;;;5056862;28;20105;-80
2022/06/15 10:00:46;;;;;;;7.72;1.60;;;22.80;92.60;;;;;;5035582;28;20079;-81
2022/06/15 10:03:34;;;;;;;7.10;1.65;;;22.70;93.20;;;;;;5044544;28;20131;-81
2022/06/15 10:06:29;;;;;;;5.93;1.63;;;22.60;93.80;;;;;;5041673;28;20057;-81
2022/06/15 10:09:01;;;;;;;10.40;1.80;;;22.60;93.90;;;;;;5040195;28;20064;-81
2022/06/15 10:14:51;;;;;;;5.55;1.70;;;22.70;92.70;;;;;;5031187;28;20057;-82
2022/06/15 10:17:30;;;;;;;6.55;1.65;;;22.60;93.30;;;;;;5023003;28;20760;-81
2022/06/15 10:19:57;;;;;;;7.57;1.90;;;22.50;94.00;;;;;;5051008;28;20063;-81
2022/06/15 10:22:40;;;;;;;4.00;1.48;;;22.20;94.10;;;;;;5026540;28;20057;-83
2022/06/15 10:25:14;;;;;;;6.55;1.98;;;22.00;94.40;;;;;;5038275;28;20110;-78
2022/06/15 10:27:40;;;;;;;6.30;1.42;;;21.80;94.40;;;;;;5026937;28;20839;-79
2022/06/15 10:30:12;;;;;;;6.35;1.70;;;21.70;95.40;;;;;;5036591;28;20048;-79
2022/06/15 10:33:00;;;;;;;6.25;1.40;;;21.70;95.70;;;;;;5056116;28;20044;-79
2022/06/15 10:35:29;;;;;;;3.60;1.40;;;21.60;95.10;;;;;;5031221;28;20041;-79
2022/06/15 10:37:58;;;;;;;5.70;1.50;;;21.50;95.80;;;;;;5054595;28;20094;-79
2022/06/15 10:40:36;;;;;;;6.72;1.75;;;21.60;95.60;;;;;;5040393;28;20060;-79
2022/06/15 10:43:14;;;;;;;7.05;1.40;;;21.50;93.00;;;;;;5038001;28;20044;-79
2022/06/15 10:45:54;;;;;;;6.13;1.42;;;21.50;94.10;;;;;;5022907;28;20056;-78
2022/06/15 10:48:23;;;;;;;7.13;1.52;;;21.70;94.90;;;;;;5039881;28;20488;-79
2022/06/15 10:51:11;;;;;;;6.10;1.38;;;21.70;94.40;;;;;;5036804;28;20147;-79
2022/06/15 10:53:56;;;;;;;4.07;1.40;;;21.70;93.90;;;;;;5038120;28;20063;-80
2022/06/15 11:02:32;;;;;;;4.65;1.45;;;22.00;93.30;;;;;;5035909;28;20052;-78
2022/06/15 11:05:11;;;;;;;5.25;1.50;;;22.30;93.60;;;;;;5028317;28;20041;-79
2022/06/15 11:07:45;;;;;;;7.13;1.60;;;22.60;93.00;;;;;;5019813;28;20053;-79
2022/06/15 11:10:24;;;;;;;;;;;22.80;92.90;;;;;;5038134;28;20132;-79
2022/06/15 11:12:55;;;;;;;7.47;1.73;;;22.90;92.60;;;;;;5018302;28;20012;-79
2022/06/15 11:18:37;;;;;;;5.07;1.50;;;23.10;92.80;;;;;;5034803;28;20061;-78
2022/06/15 11:21:23;;;;;;;4.70;1.40;;;23.10;93.50;;;;;;5026863;28;20044;-79
2022/06/15 11:23:57;;;;;;;7.20;1.90;;;23.30;93.30;;;;;;5038822;28;20055;-79
2022/06/15 11:26:57;;;;;;;5.97;1.67;;;23.30;92.10;;;;;;5026489;28;20134;-79
2022/06/15 11:29:28;;;;;;;6.22;1.73;;;23.10;92.70;;;;;;5047587;28;20041;-82
2022/06/15 11:31:58;;;;;;;4.05;1.40;;;22.90;92.60;;;;;;5057419;28;20060;-82
2022/06/15 11:34:31;;;;;;;6.22;1.83;;;22.80;94.20;;;;;;5037072;28;20056;-81
2022/06/15 11:37:05;;;;;;;4.55;1.52;;;22.90;94.10;;;;;;5038384;28;20052;-81
2022/06/15 11:39:40;;;;;;;9.07;1.90;;;22.80;93.70;;;;;;5044865;28;20708;-81
2022/06/15 11:42:12;;;;;;;9.15;1.98;;;22.80;93.00;;;;;;5052021;28;20050;-81
2022/06/15 11:44:42;;;;;;;4.57;1.83;;;22.60;93.40;;;;;;5018137;28;20667;-81
2022/06/15 11:47:33;;;;;;;6.30;1.50;;;22.40;93.30;;;;;;5049139;28;20065;-81
2022/06/15 11:50:22;;;;;;;5.45;1.73;;;22.30;93.30;;;;;;5034066;28;20088;-81
2022/06/15 11:52:58;;;;;;;6.78;1.95;;;22.10;93.70;;;;;;5019045;28;20046;-81
2022/06/15 11:55:36;;;;;;;6.22;1.92;;;22.10;93.70;;;;;;5043100;28;20459;-81
2022/06/15 11:58:26;;;;;;;5.82;1.90;;;22.10;93.90;;;;;;5027750;28;20053;-82
2022/06/15 12:00:58;;;;;;;5.35;2.00;;;22.40;94.10;;;;;;5033269;28;20052;-81
2022/06/15 12:04:01;;;;;;;4.90;1.80;;;22.70;94.00;;;;;;5036928;28;20061;-81
2022/06/15 12:06:34;;;;;;;7.45;1.98;;;22.80;93.40;;;;;;5033674;28;20045;-81
2022/06/15 12:09:00;;;;;;;5.47;2.27;;;22.80;93.00;;;;;;5040702;28;20048;-81
2022/06/15 12:15:26;;;;;;;5.13;1.70;;;22.70;93.80;;;;;;5001522;28;20057;-80
2022/06/15 12:18:10;;;;;;;6.65;2.00;;;22.80;94.30;;;;;;5001430;28;20114;-77
2022/06/15 12:20:57;;;;;;;5.15;1.67;;;22.90;94.00;;;;;;5032466;28;20061;-80
2022/06/15 12:23:23;;;;;;;4.72;1.67;;;23.00;92.60;;;;;;5031952;28;20110;-80
2022/06/15 12:26:12;;;;;;;5.45;1.92;;;23.10;93.30;;;;;;5035124;28;20048;-80
2022/06/15 12:29:04;;;;;;;4.28;1.70;;;23.20;93.60;;;;;;5041158;28;20642;-78
2022/06/15 12:31:44;;;;;;;4.93;1.73;;;23.30;91.60;;;;;;5040092;28;20041;-77
2022/06/15 12:34:40;;;;;;;4.07;1.55;;;23.40;93.10;;;;;;5033067;28;20056;-77
2022/06/15 12:37:22;;;;;;;10.52;2.40;;;23.60;93.50;;;;;;5037039;28;20547;-77
2022/06/15 12:40:15;;;;;;;6.75;2.20;;;23.70;92.50;;;;;;5052269;28;20048;-78
2022/06/15 12:42:46;;;;;;;5.88;1.77;;;23.90;92.00;;;;;;5036876;28;20052;-78
2022/06/15 12:45:31;;;;;;;5.53;1.58;;;24.00;91.70;;;;;;5039168;28;20049;-78
2022/06/15 12:48:01;;;;;;;5.05;1.92;;;23.80;92.30;;;;;;5038595;28;20068;-77
2022/06/15 12:50:47;;;;;;;8.00;1.80;;;23.50;92.30;;;;;;5032873;28;20114;-78
2022/06/15 12:53:22;;;;;;;6.18;2.20;;;23.30;93.00;;;;;;5024263;28;20053;-78
2022/06/15 12:56:14;;;;;;;5.95;2.00;;;23.20;93.30;;;;;;5029604;28;20499;-77
2022/06/15 12:59:19;;;;;;;5.20;1.92;;;23.00;93.20;;;;;;5034011;28;20400;-78
2022/06/15 13:01:52;;;;;;;6.45;1.90;;;22.90;93.90;;;;;;5020390;28;20085;-77
2022/06/15 13:04:31;;;;;;;4.97;2.10;;;23.00;94.00;;;;;;5043128;28;20500;-81
2022/06/15 13:07:20;;;;;;;5.32;1.88;;;23.20;93.00;;;;;;5034350;28;20061;-82
2022/06/15 13:10:09;;;;;;;4.53;1.60;;;23.30;92.60;;;;;;5020202;28;20053;-82
2022/06/15 13:12:51;;;;;;;4.57;1.80;;;23.40;93.20;;;;;;5032148;28;20085;-82
2022/06/15 13:15:21;;;;;;;4.35;1.73;;;23.30;92.20;;;;;;5026536;28;20044;-82
2022/06/15 13:18:09;;;;;;;6.15;2.20;;;23.30;92.90;;;;;;5040131;28;20057;-82
2022/06/15 13:20:48;;;;;;;8.75;2.67;;;23.30;93.10;;;;;;5020982;28;20056;-82
2022/06/15 13:23:22;;;;;;;8.60;2.72;;;23.10;93.00;;;;;;5022813;28;20148;-79
2022/06/15 13:26:02;;;;;;;4.93;2.70;;;23.10;93.50;;;;;;5053496;28;20060;-81
2022/06/15 13:28:31;;;;;;;4.78;2.13;;;23.00;93.30;;;;;;5036415;28;20057;-77
2022/06/15 13:31:03;;;;;;;6.70;2.10;;;23.00;93.30;;;;;;5040947;28;20118;-77
2022/06/15 13:34:03;;;;;;;7.80;3.35;;;23.10;94.30;;;;;;5040738;28;20692;-77
2022/06/15 13:36:30;;;;;;;10.95;2.47;;;23.30;93.30;;;;;;5019292;28;20244;-77